Time;durP1;ratioP1;P1;durP2;ratioP2;P2;SDS_P1;SDS_P2;PMS_P1;PMS_P2;Temp;Humidity;BMP_temperature;BMP_pressure;BME280_temperature;BME280_humidity;BME280_pressure;Samples;Min_cycle;Max_cycle;Signal;HPM_P1;HPM_P2
2022/06/29 00:02:08;;;;;;;2.88;1.42;;;18.90;59.50;;;;;;5053123;28;20036;-37
2022/06/29 00:04:34;;;;;;;1.80;1.42;;;18.90;59.60;;;;;;5053030;28;20075;-37
2022/06/29 00:06:59;;;;;;;6.35;1.40;;;18.80;59.90;;;;;;5053080;28;20049;-37
2022/06/29 00:09:25;;;;;;;5.97;1.38;;;18.80;60.20;;;;;;5053463;28;20154;-37
2022/06/29 00:11:51;;;;;;;2.78;1.70;;;18.70;60.50;;;;;;5053437;28;20028;-38
2022/06/29 00:14:17;;;;;;;4.13;1.23;;;18.70;60.80;;;;;;5052164;28;20037;-38
2022/06/29 00:16:42;;;;;;;3.47;0.95;;;18.70;60.80;;;;;;5053245;28;20442;-37
2022/06/29 00:19:08;;;;;;;2.15;1.58;;;18.60;61.00;;;;;;5051800;28;20132;-37
2022/06/29 00:21:34;;;;;;;4.32;1.40;;;18.60;61.10;;;;;;5051806;28;20369;-37
2022/06/29 00:23:59;;;;;;;4.55;1.40;;;18.60;61.20;;;;;;5051666;28;20021;-37
2022/06/29 00:26:26;;;;;;;2.92;1.38;;;18.60;61.10;;;;;;5052887;28;20021;-37
2022/06/29 00:28:52;;;;;;;7.35;1.90;;;18.50;61.40;;;;;;5053100;28;20028;-36
2022/06/29 00:31:18;;;;;;;2.97;1.60;;;18.40;61.80;;;;;;5052861;28;20033;-37
2022/06/29 00:33:44;;;;;;;5.03;1.65;;;18.30;62.40;;;;;;5052854;28;20029;-37
2022/06/29 00:36:09;;;;;;;2.92;1.48;;;18.30;62.60;;;;;;5052591;28;20044;-38
2022/06/29 00:38:35;;;;;;;1.63;1.40;;;18.30;62.70;;;;;;5052590;28;20029;-38
2022/06/29 00:41:01;;;;;;;3.05;1.40;;;18.30;62.60;;;;;;5052596;28;20018;-36
2022/06/29 00:43:26;;;;;;;2.22;1.20;;;18.30;62.70;;;;;;5051260;28;20472;-37
2022/06/29 00:45:52;;;;;;;3.22;1.92;;;18.20;63.10;;;;;;5052502;28;20036;-37
2022/06/29 00:48:18;;;;;;;4.22;2.10;;;18.20;63.40;;;;;;5051103;28;20029;-37
2022/06/29 00:50:46;;;;;;;2.30;1.48;;;18.20;63.10;;;;;;5052503;28;20033;-37
2022/06/29 00:53:16;;;;;;;3.63;1.95;;;18.20;63.20;;;;;;5052664;28;20094;-36
2022/06/29 00:55:44;;;;;;;6.65;2.75;;;18.20;63.50;;;;;;5053423;28;20049;-37
2022/06/29 00:58:10;;;;;;;6.13;1.88;;;18.20;63.50;;;;;;5052361;28;20591;-37
2022/06/29 01:00:36;;;;;;;5.00;1.40;;;18.10;63.40;;;;;;5052326;28;20488;-37
2022/06/29 01:03:03;;;;;;;5.07;1.55;;;18.00;63.70;;;;;;5052734;28;20021;-36
2022/06/29 01:05:30;;;;;;;1.30;1.20;;;18.00;64.00;;;;;;5055037;28;20029;-37
2022/06/29 01:07:56;;;;;;;7.32;1.67;;;17.90;64.30;;;;;;5055990;28;20025;-37
2022/06/29 01:10:29;;;;;;;5.68;1.80;;;18.10;64.00;;;;;;5056173;28;20029;-37
2022/06/29 01:12:54;;;;;;;5.78;1.67;;;18.00;63.90;;;;;;5056241;28;20132;-37
2022/06/29 01:15:21;;;;;;;1.55;1.42;;;18.00;64.30;;;;;;5055796;28;20025;-37
2022/06/29 01:17:47;;;;;;;3.38;2.55;;;18.10;63.90;;;;;;5055646;28;20127;-38
2022/06/29 01:20:14;;;;;;;3.47;1.80;;;18.10;63.90;;;;;;5056095;28;20111;-39
2022/06/29 01:22:40;;;;;;;1.65;1.52;;;18.10;64.00;;;;;;5055698;28;20029;-37
2022/06/29 01:25:07;;;;;;;4.53;2.10;;;18.00;64.30;;;;;;5055908;28;20029;-37
2022/06/29 01:27:32;;;;;;;2.97;1.30;;;18.00;64.50;;;;;;5055632;28;20032;-37
2022/06/29 01:29:58;;;;;;;4.60;1.52;;;17.90;64.70;;;;;;5055582;28;20067;-37
2022/06/29 01:32:24;;;;;;;2.20;1.30;;;17.90;64.80;;;;;;5055826;28;20078;-37
2022/06/29 01:34:50;;;;;;;3.80;1.55;;;17.90;64.60;;;;;;5056232;28;20373;-37
2022/06/29 01:37:16;;;;;;;4.05;1.50;;;17.90;64.80;;;;;;5055852;28;20029;-37
2022/06/29 01:39:42;;;;;;;5.13;1.77;;;18.00;64.50;;;;;;5055920;28;20384;-38
2022/06/29 01:42:08;;;;;;;4.57;2.58;;;18.00;64.50;;;;;;5055555;28;20072;-37
2022/06/29 01:44:35;;;;;;;4.55;1.80;;;18.00;64.50;;;;;;5055499;28;20021;-37
2022/06/29 01:47:02;;;;;;;4.93;1.65;;;18.00;64.50;;;;;;5055562;28;20025;-48
2022/06/29 01:49:28;;;;;;;4.93;2.22;;;17.90;64.70;;;;;;5055374;28;20048;-49
2022/06/29 01:51:54;;;;;;;2.53;1.65;;;18.10;64.50;;;;;;5055762;28;20431;-52
2022/06/29 01:54:21;;;;;;;6.40;1.80;;;18.10;64.00;;;;;;5055306;28;20519;-48
2022/06/29 01:56:46;;;;;;;5.05;1.50;;;18.00;64.40;;;;;;5055441;28;20045;-49
2022/06/29 01:59:12;;;;;;;3.25;1.58;;;17.90;64.70;;;;;;5055175;28;20063;-47
2022/06/29 02:01:38;;;;;;;3.63;1.70;;;17.90;64.70;;;;;;5054314;28;20029;-50
2022/06/29 02:04:04;;;;;;;3.33;1.75;;;18.00;64.50;;;;;;5055113;28;20021;-50
2022/06/29 02:06:29;;;;;;;4.50;1.38;;;18.00;64.90;;;;;;5055153;28;20036;-48
2022/06/29 02:08:55;;;;;;;2.78;1.83;;;17.90;64.80;;;;;;5054994;28;20083;-48
2022/06/29 02:11:23;;;;;;;7.97;1.88;;;17.90;65.00;;;;;;5054984;28;20051;-48
2022/06/29 02:13:49;;;;;;;5.18;2.13;;;17.90;64.70;;;;;;5055145;28;20040;-50
2022/06/29 02:16:15;;;;;;;4.20;1.92;;;17.90;64.70;;;;;;5054798;28;20033;-49
2022/06/29 02:18:41;;;;;;;3.25;1.50;;;17.80;65.00;;;;;;5054597;28;20117;-48
2022/06/29 02:21:06;;;;;;;4.28;1.98;;;17.80;65.00;;;;;;5055129;28;20029;-49
2022/06/29 02:23:32;;;;;;;2.65;1.73;;;17.80;65.10;;;;;;5054892;28;20028;-49
2022/06/29 02:25:57;;;;;;;2.72;1.98;;;17.80;65.60;;;;;;5055158;28;20079;-48
2022/06/29 02:28:23;;;;;;;3.83;1.73;;;17.80;65.30;;;;;;5053383;28;20166;-48
2022/06/29 02:36:17;;;;;;;3.28;2.33;;;17.90;64.90;;;;;;5055144;28;20476;-49
2022/06/29 02:38:43;;;;;;;7.57;2.10;;;18.00;64.70;;;;;;5054807;28;20025;-47
2022/06/29 02:41:08;;;;;;;2.75;2.40;;;18.00;64.90;;;;;;5053932;28;20021;-49
2022/06/29 02:43:34;;;;;;;4.18;2.05;;;17.90;65.10;;;;;;5054643;28;20027;-50
2022/06/29 02:46:00;;;;;;;5.70;2.30;;;18.00;65.10;;;;;;5053196;28;20055;-51
2022/06/29 02:48:25;;;;;;;4.20;1.80;;;18.00;65.10;;;;;;5054666;28;20523;-49
2022/06/29 02:50:51;;;;;;;3.75;2.17;;;18.00;65.30;;;;;;5054569;28;20465;-50
2022/06/29 02:53:17;;;;;;;4.93;2.65;;;17.90;65.30;;;;;;5054458;28;20492;-48
2022/06/29 02:55:43;;;;;;;2.20;1.90;;;17.90;65.10;;;;;;5054065;28;20029;-47
2022/06/29 02:58:08;;;;;;;3.53;3.17;;;17.80;65.40;;;;;;5053030;28;20031;-48
2022/06/29 03:00:34;;;;;;;11.43;5.53;;;17.90;65.50;;;;;;5054278;28;20044;-47
2022/06/29 03:02:59;;;;;;;5.80;2.92;;;17.80;65.30;;;;;;5054933;28;20060;-51
2022/06/29 20:15:24;;;;;;;5.63;4.80;;;23.20;63.80;;;;;;5070972;28;20436;-50
2022/06/29 20:17:50;;;;;;;7.63;4.85;;;23.20;63.70;;;;;;5070828;28;20028;-50
2022/06/29 20:20:15;;;;;;;5.38;4.82;;;23.30;63.60;;;;;;5069290;28;20056;-49
2022/06/29 20:22:41;;;;;;;7.68;5.70;;;23.30;63.30;;;;;;5070785;28;20021;-48
2022/06/29 20:25:08;;;;;;;5.90;5.35;;;23.30;63.30;;;;;;5071073;28;20047;-49
2022/06/29 20:27:35;;;;;;;9.48;5.57;;;23.30;63.20;;;;;;5070100;28;20027;-49
2022/06/29 20:30:02;;;;;;;12.13;5.65;;;23.40;62.90;;;;;;5069860;28;20119;-50
2022/06/29 20:32:29;;;;;;;6.72;5.18;;;23.40;62.80;;;;;;5069761;28;20024;-49
2022/06/29 20:34:54;;;;;;;7.35;5.43;;;23.40;62.90;;;;;;5069842;28;20490;-50
2022/06/29 20:37:20;;;;;;;6.18;5.57;;;23.30;62.90;;;;;;5071549;28;20024;-41
2022/06/29 20:39:46;;;;;;;8.85;5.63;;;23.40;62.70;;;;;;5077047;28;20451;-38
2022/06/29 20:42:11;;;;;;;6.75;5.10;;;23.40;62.80;;;;;;5069688;28;20029;-38
2022/06/29 20:47:22;;;;;;;9.70;6.30;;;23.40;62.80;;;;;;5070372;28;20130;-37
2022/06/29 20:49:47;;;;;;;9.40;6.03;;;23.30;62.80;;;;;;5069718;28;20017;-37
2022/06/29 20:52:13;;;;;;;6.82;5.13;;;23.40;62.90;;;;;;5069751;28;20094;-37
2022/06/29 20:54:38;;;;;;;9.75;6.07;;;23.30;62.90;;;;;;5070091;28;20062;-38
2022/06/29 20:57:10;;;;;;;6.90;5.35;;;23.30;63.10;;;;;;5072955;28;20099;-38
2022/06/29 20:59:39;;;;;;;9.75;5.90;;;23.30;63.10;;;;;;5070616;28;20029;-37
2022/06/29 21:02:06;;;;;;;6.07;5.47;;;23.30;63.30;;;;;;5069014;28;20104;-37
2022/06/29 21:04:33;;;;;;;7.20;5.32;;;23.20;63.60;;;;;;5068530;28;20029;-39
2022/06/29 21:06:59;;;;;;;8.43;5.45;;;23.20;63.80;;;;;;5068575;28;20029;-38
2022/06/29 21:09:27;;;;;;;7.03;5.50;;;23.20;64.00;;;;;;5069623;28;20037;-38
2022/06/29 21:11:53;;;;;;;7.35;5.82;;;23.10;64.20;;;;;;5069186;28;20024;-38
2022/06/29 21:14:20;;;;;;;7.57;6.05;;;23.10;64.50;;;;;;5068093;28;20048;-38
2022/06/29 21:16:46;;;;;;;7.53;5.75;;;23.10;64.60;;;;;;5069065;28;20091;-38
2022/06/29 21:19:11;;;;;;;6.97;5.78;;;23.10;65.10;;;;;;5069073;28;20029;-38
2022/06/29 21:21:37;;;;;;;11.43;6.18;;;23.10;65.10;;;;;;5069235;28;20380;-37
2022/06/29 21:24:04;;;;;;;9.05;5.60;;;23.00;65.40;;;;;;5067803;28;20108;-37
2022/06/29 21:26:29;;;;;;;9.93;6.68;;;23.00;65.40;;;;;;5055952;28;20036;-38
2022/06/29 21:28:55;;;;;;;14.27;7.22;;;23.00;65.60;;;;;;5055622;28;20025;-37
2022/06/29 21:31:21;;;;;;;8.20;5.57;;;22.90;66.60;;;;;;5054332;28;20037;-37
2022/06/29 21:33:47;;;;;;;9.25;5.68;;;22.80;67.40;;;;;;5055700;28;20021;-38
2022/06/29 21:36:14;;;;;;;9.88;6.68;;;22.60;68.00;;;;;;5056211;28;20473;-38
2022/06/29 21:38:42;;;;;;;8.13;5.60;;;22.40;68.80;;;;;;5054430;28;20104;-37
2022/06/29 21:41:08;;;;;;;8.05;5.97;;;22.40;68.60;;;;;;5054200;28;20052;-38
2022/06/29 21:43:37;;;;;;;8.18;6.82;;;22.30;68.80;;;;;;5055537;28;20025;-37
2022/06/29 21:46:04;;;;;;;12.98;6.78;;;22.30;69.20;;;;;;5054016;28;20029;-39
2022/06/29 21:51:14;;;;;;;51.15;7.70;;;22.20;69.70;;;;;;5055864;28;20032;-38
2022/06/29 21:53:45;;;;;;;7.35;6.57;;;22.20;70.30;;;;;;5053996;28;20025;-38
2022/06/29 21:56:12;;;;;;;8.77;6.57;;;22.20;70.70;;;;;;5053947;28;20021;-37
2022/06/29 21:58:38;;;;;;;10.65;7.15;;;22.10;71.00;;;;;;5055241;28;20380;-37
2022/06/29 22:01:04;;;;;;;9.57;7.50;;;22.10;71.10;;;;;;5054860;28;20431;-37
2022/06/29 22:03:31;;;;;;;10.52;7.93;;;22.10;71.10;;;;;;5053930;28;20036;-37
2022/06/29 22:05:59;;;;;;;11.65;7.10;;;22.10;71.00;;;;;;5055212;28;20496;-38
2022/06/29 22:08:25;;;;;;;8.65;6.60;;;22.10;71.00;;;;;;5055451;28;20098;-38
2022/06/29 22:10:51;;;;;;;9.68;7.63;;;22.10;71.20;;;;;;5055204;28;20099;-38
2022/06/29 22:13:17;;;;;;;11.85;7.90;;;22.10;71.10;;;;;;5053661;28;20064;-38
2022/06/29 22:15:43;;;;;;;10.18;7.15;;;22.10;71.10;;;;;;5054715;28;20044;-37
2022/06/29 22:18:08;;;;;;;10.38;7.40;;;22.00;71.30;;;;;;5054847;28;20020;-37
2022/06/29 22:20:34;;;;;;;10.98;7.53;;;21.80;71.70;;;;;;5054639;28;20028;-37
2022/06/29 22:22:59;;;;;;;12.02;6.95;;;21.80;72.00;;;;;;5054527;28;20025;-37
2022/06/29 22:25:25;;;;;;;10.05;7.90;;;21.80;72.60;;;;;;5054394;28;20024;-37
2022/06/29 22:27:54;;;;;;;10.65;7.95;;;21.70;73.10;;;;;;5054697;28;20021;-37
2022/06/29 22:30:23;;;;;;;8.75;6.93;;;21.70;73.00;;;;;;5054587;28;20088;-38
2022/06/29 22:32:49;;;;;;;8.17;7.07;;;21.50;73.40;;;;;;5054429;28;20025;-38
2022/06/29 22:35:15;;;;;;;9.50;7.28;;;21.40;73.80;;;;;;5054614;28;20056;-38
2022/06/29 22:37:41;;;;;;;8.80;7.03;;;21.40;74.00;;;;;;5053473;28;20025;-38
2022/06/29 22:40:07;;;;;;;7.95;7.15;;;21.30;74.20;;;;;;5054492;28;20025;-37
2022/06/29 22:42:33;;;;;;;11.07;7.97;;;21.30;74.50;;;;;;5054447;28;20029;-38
2022/06/29 22:44:59;;;;;;;9.50;7.60;;;21.30;74.70;;;;;;5052951;28;20120;-36
2022/06/29 22:47:25;;;;;;;9.18;8.00;;;21.20;74.50;;;;;;5054354;28;20043;-37
2022/06/29 22:49:50;;;;;;;9.90;7.82;;;21.20;74.60;;;;;;5054268;28;20119;-37
2022/06/29 22:52:16;;;;;;;14.32;7.68;;;21.20;74.90;;;;;;5052594;28;20082;-37
2022/06/29 22:54:42;;;;;;;11.43;8.88;;;21.10;75.40;;;;;;5052396;28;20123;-37
2022/06/29 22:57:08;;;;;;;10.05;7.40;;;21.00;75.90;;;;;;5052569;28;20021;-37
2022/06/29 22:59:33;;;;;;;11.77;8.75;;;20.90;76.00;;;;;;5053951;28;20143;-37
2022/06/29 23:01:59;;;;;;;10.55;8.57;;;20.80;76.40;;;;;;5053893;28;20048;-38
2022/06/29 23:04:25;;;;;;;9.27;7.85;;;20.80;76.30;;;;;;5053738;28;20029;-37
2022/06/29 23:06:50;;;;;;;9.82;7.90;;;20.80;76.40;;;;;;5052447;28;20079;-37
2022/06/29 23:09:16;;;;;;;10.90;8.13;;;20.80;76.50;;;;;;5054134;28;20029;-37
2022/06/29 23:14:26;;;;;;;9.88;7.80;;;20.70;76.90;;;;;;5052948;28;20098;-37
2022/06/29 23:16:53;;;;;;;14.07;9.10;;;20.60;77.10;;;;;;5054059;28;20427;-38
2022/06/29 23:19:18;;;;;;;10.85;8.18;;;20.50;77.50;;;;;;5053968;28;20036;-37
2022/06/29 23:21:44;;;;;;;11.25;8.40;;;20.50;77.80;;;;;;5053682;28;20025;-38
2022/06/29 23:24:09;;;;;;;11.32;8.60;;;20.40;78.30;;;;;;5053724;28;20457;-44
2022/06/29 23:26:35;;;;;;;10.20;8.93;;;20.30;78.60;;;;;;5053874;28;20029;-38
2022/06/29 23:29:01;;;;;;;11.43;8.50;;;20.20;79.00;;;;;;5053461;28;20174;-37
2022/06/29 23:31:28;;;;;;;10.93;8.30;;;20.20;79.20;;;;;;5053755;28;20033;-38
2022/06/29 23:33:55;;;;;;;14.75;9.23;;;20.20;79.20;;;;;;5053646;28;20464;-38
2022/06/29 23:36:20;;;;;;;12.30;8.27;;;20.20;79.10;;;;;;5053320;28;20416;-37
2022/06/29 23:38:46;;;;;;;11.50;8.55;;;20.20;79.30;;;;;;5053125;28;20029;-39
2022/06/29 23:41:13;;;;;;;14.18;9.63;;;20.20;79.30;;;;;;5053490;28;20035;-36
2022/06/29 23:43:39;;;;;;;10.20;8.63;;;20.10;79.50;;;;;;5051948;28;20021;-37
2022/06/29 23:46:05;;;;;;;10.77;8.63;;;20.10;79.40;;;;;;5053099;28;20047;-37
2022/06/29 23:48:31;;;;;;;12.38;8.77;;;20.10;79.30;;;;;;5053167;28;20037;-37
2022/06/29 23:50:57;;;;;;;15.68;10.65;;;20.10;79.30;;;;;;5053379;28;20108;-37
2022/06/29 23:53:23;;;;;;;11.45;9.95;;;20.10;79.00;;;;;;5052401;28;20119;-37
2022/06/29 23:55:49;;;;;;;10.98;8.80;;;20.10;79.00;;;;;;5053054;28;20029;-38
2022/06/29 23:58:15;;;;;;;12.95;9.55;;;19.90;79.50;;;;;;5051970;28;20045;-37
